createdAt,value
2022-11-03T00:00:16.172Z,85.81
2022-11-03T00:01:16.219Z,85.75
2022-11-03T00:02:16.205Z,85.64
2022-11-03T00:03:16.101Z,85.64
2022-11-03T00:04:16.094Z,85.75
2022-11-03T00:05:16.083Z,85.85
2022-11-03T00:06:16.091Z,85.85
2022-11-03T00:07:16.060Z,85.64
2022-11-03T00:08:16.071Z,85.55
2022-11-03T00:09:16.046Z,85.50
2022-11-03T00:10:16.039Z,85.40
2022-11-03T00:11:16.049Z,85.30
2022-11-03T00:12:16.037Z,85.30
2022-11-03T00:13:15.990Z,85.30
2022-11-03T00:14:15.992Z,85.20
2022-11-03T00:15:15.973Z,85.20
2022-11-03T00:16:15.993Z,85.20
2022-11-03T00:17:15.952Z,85.10
2022-11-03T00:18:15.932Z,85.10
2022-11-03T00:19:15.974Z,85.10
2022-11-03T00:20:15.914Z,84.99
2022-11-03T00:21:15.906Z,85.10
2022-11-03T00:22:15.892Z,84.99
2022-11-03T00:23:15.883Z,84.89
2022-11-03T00:24:15.882Z,84.79
2022-11-03T00:25:15.891Z,84.69
2022-11-03T00:26:15.863Z,84.69
2022-11-03T00:27:15.834Z,84.69
2022-11-03T00:28:15.835Z,84.69
2022-11-03T00:29:15.845Z,84.58
2022-11-03T00:30:15.804Z,84.58
2022-11-03T00:31:15.803Z,84.48
2022-11-03T00:32:15.805Z,84.48
2022-11-03T00:33:15.771Z,84.48
2022-11-03T00:34:15.762Z,84.48
2022-11-03T00:35:15.753Z,84.69
2022-11-03T00:36:15.743Z,84.79
2022-11-03T00:37:15.725Z,84.69
2022-11-03T00:38:15.744Z,84.89
2022-11-03T00:39:15.704Z,84.79
2022-11-03T00:40:15.696Z,84.89
2022-11-03T00:41:15.683Z,84.89
2022-11-03T00:42:15.694Z,84.89
2022-11-03T00:43:15.675Z,84.79
2022-11-03T00:44:15.646Z,84.79
2022-11-03T00:45:15.634Z,84.79
2022-11-03T00:46:15.626Z,84.89
2022-11-03T00:47:18.940Z,84.89
2022-11-03T00:48:16.625Z,84.89
2022-11-03T00:49:15.586Z,84.89
2022-11-03T00:50:15.594Z,85.20
2022-11-03T00:51:15.576Z,85.20
2022-11-03T00:52:15.556Z,85.30
2022-11-03T00:53:15.574Z,85.44
2022-11-03T00:54:15.537Z,85.44
2022-11-03T00:55:15.524Z,85.44
2022-11-03T00:56:15.534Z,85.30
2022-11-03T00:57:15.507Z,85.30
2022-11-03T00:58:15.516Z,85.30
2022-11-03T00:59:15.477Z,85.30
2022-11-03T01:00:15.476Z,85.30
2022-11-03T01:01:15.618Z,85.30
2022-11-03T01:02:15.540Z,85.30
2022-11-03T01:03:15.460Z,85.44
2022-11-03T01:04:15.461Z,85.55
2022-11-03T01:05:15.437Z,85.55
2022-11-03T01:06:15.397Z,85.64
2022-11-03T01:07:15.395Z,85.64
2022-11-03T01:08:15.400Z,85.75
2022-11-03T01:09:15.365Z,85.75
2022-11-03T01:10:15.378Z,85.85
2022-11-03T01:11:15.349Z,85.85
2022-11-03T01:12:15.340Z,85.85
2022-11-03T01:13:15.326Z,85.96
2022-11-03T01:14:15.316Z,85.96
2022-11-03T01:15:15.331Z,85.96
2022-11-03T01:16:15.309Z,86.05
2022-11-03T01:17:15.278Z,86.26
2022-11-03T01:18:15.280Z,86.26
2022-11-03T01:19:15.265Z,86.26
2022-11-03T01:20:15.274Z,86.26
2022-11-03T01:21:15.267Z,86.26
2022-11-03T01:22:15.230Z,86.26
2022-11-03T01:23:15.217Z,86.26
2022-11-03T01:24:15.199Z,86.26
2022-11-03T01:25:15.196Z,86.26
2022-11-03T01:26:15.177Z,86.16
2022-11-03T01:27:15.193Z,86.16
2022-11-03T01:28:15.178Z,86.16
2022-11-03T01:29:15.148Z,86.26
2022-11-03T01:30:15.139Z,86.26
2022-11-03T01:31:15.127Z,86.40
2022-11-03T01:32:15.151Z,86.40
2022-11-03T01:33:15.100Z,86.51
2022-11-03T01:34:15.089Z,86.51
2022-11-03T01:35:15.078Z,86.51
2022-11-03T01:36:15.068Z,86.61
2022-11-03T01:37:15.058Z,86.71
2022-11-03T01:38:15.073Z,86.81
2022-11-03T01:39:15.038Z,86.81
2022-11-03T01:40:15.021Z,86.91
2022-11-03T01:41:15.018Z,86.91
2022-11-03T01:42:15.020Z,86.81
2022-11-03T01:43:14.997Z,86.91
2022-11-03T01:44:14.981Z,86.91
2022-11-03T01:45:14.990Z,87.02
2022-11-03T01:46:14.952Z,87.12
2022-11-03T01:47:14.940Z,87.12
2022-11-03T01:48:14.933Z,87.02
2022-11-03T01:49:14.933Z,87.12
2022-11-03T01:50:14.930Z,87.12
2022-11-03T01:51:14.908Z,87.12
2022-11-03T01:52:14.892Z,87.22
2022-11-03T01:53:14.881Z,87.22
2022-11-03T01:54:14.870Z,87.22
2022-11-03T01:55:14.901Z,87.22
2022-11-03T01:56:14.851Z,87.12
2022-11-03T01:57:14.838Z,87.02
2022-11-03T01:58:14.844Z,87.02
2022-11-03T01:59:14.811Z,87.02
2022-11-03T02:00:14.820Z,87.12
2022-11-03T02:01:14.895Z,87.12
2022-11-03T02:02:14.833Z,87.02
2022-11-03T02:03:14.774Z,87.02
2022-11-03T02:04:14.754Z,87.02
2022-11-03T02:05:14.774Z,87.12
2022-11-03T02:06:14.752Z,87.12
2022-11-03T02:07:14.731Z,87.12
2022-11-03T02:08:14.704Z,87.08
2022-11-03T02:09:14.700Z,86.98
2022-11-03T02:10:14.713Z,86.98
2022-11-03T02:11:14.673Z,87.12
2022-11-03T02:12:14.672Z,87.12
2022-11-03T02:13:14.662Z,87.12
2022-11-03T02:14:14.633Z,87.12
2022-11-03T02:15:14.633Z,87.22
2022-11-03T02:16:14.643Z,87.32
2022-11-03T02:17:14.603Z,87.32
2022-11-03T02:18:14.602Z,87.32
2022-11-03T02:19:14.584Z,87.32
2022-11-03T02:20:14.579Z,87.53
2022-11-03T02:21:14.586Z,87.53
2022-11-03T02:22:14.554Z,87.53
2022-11-03T02:23:14.542Z,87.53
2022-11-03T02:24:14.531Z,87.63
2022-11-03T02:25:14.524Z,87.63
2022-11-03T02:26:14.542Z,87.73
2022-11-03T02:27:14.510Z,87.73
2022-11-03T02:28:14.482Z,87.84
2022-11-03T02:29:14.482Z,87.84
2022-11-03T02:30:14.465Z,87.84
2022-11-03T02:31:14.492Z,87.94
2022-11-03T02:32:14.444Z,88.04
2022-11-03T02:33:14.433Z,88.04
2022-11-03T02:34:14.417Z,88.14
2022-11-03T02:35:14.417Z,88.24
2022-11-03T02:36:14.386Z,88.24
2022-11-03T02:37:14.415Z,88.24
2022-11-03T02:38:14.374Z,88.24
2022-11-03T02:39:14.361Z,88.24
2022-11-03T02:40:14.343Z,88.45
2022-11-03T02:41:14.355Z,88.45
2022-11-03T02:42:14.325Z,88.56
2022-11-03T02:43:14.316Z,88.65
2022-11-03T02:44:14.307Z,88.76
2022-11-03T02:45:17.312Z,88.76
2022-11-03T02:46:14.283Z,88.86
2022-11-03T02:47:14.295Z,88.86
2022-11-03T02:48:14.260Z,88.96
2022-11-03T02:49:14.262Z,89.06
2022-11-03T02:50:14.239Z,89.17
2022-11-03T02:51:14.226Z,89.27
2022-11-03T02:52:14.239Z,89.37
2022-11-03T02:53:14.207Z,89.37
2022-11-03T02:54:14.207Z,89.47
2022-11-03T02:55:14.179Z,89.47
2022-11-03T02:56:14.168Z,89.47
2022-11-03T02:57:14.159Z,89.58
2022-11-03T02:58:14.176Z,89.68
2022-11-03T02:59:14.143Z,89.68
2022-11-03T03:00:14.135Z,89.68
2022-11-03T03:01:14.239Z,89.58
2022-11-03T03:02:14.188Z,89.58
2022-11-03T03:03:14.098Z,89.68
2022-11-03T03:04:14.106Z,89.68
2022-11-03T03:05:14.083Z,89.78
2022-11-03T03:06:14.057Z,89.89
2022-11-03T03:07:14.066Z,89.78
2022-11-03T03:08:14.056Z,89.78
2022-11-03T03:09:14.036Z,89.89
2022-11-03T03:10:14.020Z,89.98
2022-11-03T03:11:14.020Z,90.09
2022-11-03T03:12:13.997Z,90.09
2022-11-03T03:13:14.015Z,90.09
2022-11-03T03:14:13.982Z,90.19
2022-11-03T03:15:13.979Z,90.30
2022-11-03T03:16:13.960Z,90.30
2022-11-03T03:17:13.949Z,90.39
2022-11-03T03:18:13.950Z,90.39
2022-11-03T03:19:13.918Z,90.30
2022-11-03T03:20:13.909Z,90.30
2022-11-03T03:21:13.890Z,90.39
2022-11-03T03:22:13.879Z,90.60
2022-11-03T03:23:14.429Z,90.70
2022-11-03T03:24:13.859Z,90.60
2022-11-03T03:25:13.849Z,90.60
2022-11-03T03:26:13.848Z,90.60
2022-11-03T03:27:13.838Z,90.81
2022-11-03T03:28:13.834Z,90.70
2022-11-03T03:29:13.836Z,90.81
2022-11-03T03:30:13.799Z,90.70
2022-11-03T03:31:13.789Z,90.70
2022-11-03T03:32:13.781Z,90.70
2022-11-03T03:33:13.838Z,90.81
2022-11-03T03:34:33.918Z,90.91
2022-11-03T03:35:14.755Z,90.81
2022-11-03T03:36:13.727Z,90.81
2022-11-03T03:37:13.729Z,90.60
2022-11-03T03:38:13.710Z,90.70
2022-11-03T03:39:13.697Z,90.81
2022-11-03T03:40:13.708Z,90.81
2022-11-03T03:41:13.680Z,91.01
2022-11-03T03:42:13.659Z,91.11
2022-11-03T03:43:13.658Z,91.11
2022-11-03T03:44:13.670Z,91.11
2022-11-03T03:45:13.630Z,91.11
2022-11-03T03:46:13.624Z,91.11
2022-11-03T03:47:13.612Z,91.11
2022-11-03T03:48:13.602Z,91.11
2022-11-03T03:49:13.613Z,91.22
2022-11-03T03:50:13.573Z,91.17
2022-11-03T03:51:13.579Z,91.17
2022-11-03T03:52:13.561Z,91.07
2022-11-03T03:53:13.542Z,90.97
2022-11-03T03:54:13.522Z,90.97
2022-11-03T03:55:13.574Z,90.86
2022-11-03T03:56:13.506Z,90.86
2022-11-03T03:57:13.491Z,90.86
2022-11-03T03:58:13.485Z,90.97
2022-11-03T03:59:13.481Z,90.86
2022-11-03T04:00:13.495Z,90.86
2022-11-03T04:01:13.532Z,90.86
2022-11-03T04:02:13.590Z,90.97
2022-11-03T04:03:13.432Z,90.86
2022-11-03T04:04:13.411Z,90.97
2022-11-03T04:05:13.431Z,90.86
2022-11-03T04:06:13.404Z,90.86
2022-11-03T04:07:13.382Z,90.97
2022-11-03T04:08:13.374Z,90.97
2022-11-03T04:09:13.364Z,91.07
2022-11-03T04:10:13.364Z,90.97
2022-11-03T04:11:13.366Z,91.07
2022-11-03T04:12:13.325Z,91.07
2022-11-03T04:13:13.325Z,90.97
2022-11-03T04:14:13.302Z,91.07
2022-11-03T04:15:13.295Z,91.07
2022-11-03T04:16:13.302Z,91.03
2022-11-03T04:17:13.293Z,90.97
2022-11-03T04:18:13.262Z,90.92
2022-11-03T04:19:13.254Z,90.92
2022-11-03T04:20:13.237Z,90.92
2022-11-03T04:21:13.224Z,90.92
2022-11-03T04:22:13.235Z,90.92
2022-11-03T04:23:13.204Z,90.92
2022-11-03T04:24:13.194Z,91.17
2022-11-03T04:25:13.185Z,91.17
2022-11-03T04:26:13.166Z,91.23
2022-11-03T04:27:27.506Z,91.13
2022-11-03T04:28:13.145Z,91.13
2022-11-03T04:29:13.142Z,91.13
2022-11-03T04:30:13.138Z,91.13
2022-11-03T04:31:13.123Z,91.03
2022-11-03T04:32:13.129Z,91.13
2022-11-03T04:33:13.122Z,91.13
2022-11-03T04:34:13.077Z,91.03
2022-11-03T04:35:13.092Z,91.03
2022-11-03T04:36:13.054Z,91.17
2022-11-03T04:37:13.052Z,91.07
2022-11-03T04:38:13.064Z,91.27
2022-11-03T04:39:13.038Z,91.27
2022-11-03T04:40:13.021Z,91.38
2022-11-03T04:41:13.009Z,91.38
2022-11-03T04:42:12.998Z,91.38
2022-11-03T04:43:13.234Z,91.38
2022-11-03T04:44:12.967Z,91.48
2022-11-03T04:45:12.966Z,91.48
2022-11-03T04:46:12.946Z,91.48
2022-11-03T04:47:12.935Z,91.48
2022-11-03T04:48:12.937Z,91.48
2022-11-03T04:49:12.917Z,91.48
2022-11-03T04:50:12.896Z,91.48
2022-11-03T04:51:12.888Z,91.48
2022-11-03T04:52:12.886Z,91.58
2022-11-03T04:53:12.899Z,91.58
2022-11-03T04:54:12.855Z,91.58
2022-11-03T04:55:12.846Z,91.69
2022-11-03T04:56:12.829Z,91.69
2022-11-03T04:57:12.824Z,91.89
2022-11-03T04:58:12.808Z,91.99
2022-11-03T04:59:12.857Z,91.99
2022-11-03T05:00:12.788Z,91.99
2022-11-03T05:01:12.881Z,92.10
2022-11-03T05:02:12.798Z,92.19
2022-11-03T05:03:12.968Z,92.19
2022-11-03T05:04:12.738Z,92.19
2022-11-03T05:05:12.790Z,92.40
2022-11-03T05:06:12.718Z,92.40
2022-11-03T05:07:12.738Z,92.40
2022-11-03T05:08:12.700Z,92.44
2022-11-03T05:09:12.697Z,92.55
2022-11-03T05:10:12.678Z,92.65
2022-11-03T05:11:12.689Z,92.55
2022-11-03T05:12:12.650Z,92.65
2022-11-03T05:13:12.699Z,92.75
2022-11-03T05:14:12.639Z,92.85
2022-11-03T05:15:12.639Z,92.75
2022-11-03T05:16:12.631Z,92.75
2022-11-03T05:17:12.621Z,92.85
2022-11-03T05:18:12.617Z,92.85
2022-11-03T05:19:12.584Z,92.81
2022-11-03T05:20:12.568Z,92.81
2022-11-03T05:21:12.561Z,92.71
2022-11-03T05:22:12.560Z,92.81
2022-11-03T05:23:12.551Z,92.81
2022-11-03T05:24:12.639Z,92.81
2022-11-03T05:25:12.521Z,92.81
2022-11-03T05:26:12.501Z,92.81
2022-11-03T05:27:12.491Z,92.81
2022-11-03T05:28:12.480Z,92.81
2022-11-03T05:29:12.490Z,92.81
2022-11-03T05:30:12.451Z,92.81
2022-11-03T05:31:12.475Z,92.81
2022-11-03T05:32:12.438Z,92.81
2022-11-03T05:33:12.422Z,92.81
2022-11-03T05:34:12.441Z,92.81
2022-11-03T05:35:12.400Z,92.91
2022-11-03T05:36:12.391Z,92.91
2022-11-03T05:37:12.379Z,92.91
2022-11-03T05:38:12.378Z,93.01
2022-11-03T05:39:12.357Z,93.01
2022-11-03T05:40:12.371Z,93.12
2022-11-03T05:41:12.351Z,93.12
2022-11-03T05:42:12.321Z,93.22
2022-11-03T05:43:12.420Z,93.32
2022-11-03T05:44:12.302Z,93.32
2022-11-03T05:45:12.319Z,93.32
2022-11-03T05:46:12.284Z,93.43
2022-11-03T05:47:12.274Z,93.32
2022-11-03T05:48:12.255Z,93.22
2022-11-03T05:49:12.244Z,93.22
2022-11-03T05:50:12.260Z,93.22
2022-11-03T05:51:12.221Z,93.22
2022-11-03T05:52:12.215Z,93.12
2022-11-03T05:53:12.212Z,93.12
2022-11-03T05:54:16.903Z,93.22
2022-11-03T05:55:13.204Z,93.32
2022-11-03T05:56:12.172Z,93.32
2022-11-03T05:57:12.154Z,93.52
2022-11-03T05:58:12.164Z,95.02
2022-11-03T05:59:12.133Z,95.02
2022-11-03T06:00:12.164Z,94.40
2022-11-03T06:01:12.165Z,94.60
2022-11-03T06:02:12.213Z,94.20
2022-11-03T06:03:12.093Z,93.89
2022-11-03T06:04:12.083Z,93.59
2022-11-03T06:05:12.093Z,93.33
2022-11-03T06:06:12.062Z,92.62
2022-11-03T06:07:12.054Z,92.36
2022-11-03T06:08:12.125Z,92.25
2022-11-03T06:09:12.025Z,92.15
2022-11-03T06:10:12.014Z,92.15
2022-11-03T06:11:12.024Z,92.25
2022-11-03T06:12:12.004Z,92.15
2022-11-03T06:13:11.986Z,92.25
2022-11-03T06:14:11.974Z,92.36
2022-11-03T06:15:11.963Z,92.36
2022-11-03T06:16:11.971Z,92.46
2022-11-03T06:17:11.935Z,92.56
2022-11-03T06:18:11.928Z,92.56
2022-11-03T06:19:11.917Z,92.56
2022-11-03T06:20:11.904Z,92.56
2022-11-03T06:21:11.886Z,92.46
2022-11-03T06:22:11.904Z,92.46
2022-11-03T06:23:11.880Z,92.46
2022-11-03T06:24:11.874Z,92.46
2022-11-03T06:25:11.853Z,92.56
2022-11-03T06:26:11.836Z,92.56
2022-11-03T06:27:11.852Z,92.56
2022-11-03T06:28:11.817Z,92.56
2022-11-03T06:29:11.807Z,92.46
2022-11-03T06:30:11.796Z,92.46
2022-11-03T06:31:11.780Z,92.25
2022-11-03T06:32:11.793Z,92.25
2022-11-03T06:33:11.785Z,92.25
2022-11-03T06:34:11.746Z,92.25
2022-11-03T06:35:11.747Z,92.25
2022-11-03T06:36:11.726Z,92.25
2022-11-03T06:37:13.460Z,92.25
2022-11-03T06:38:11.728Z,92.25
2022-11-03T06:39:11.686Z,92.11
2022-11-03T06:40:11.686Z,92.01
2022-11-03T06:41:11.663Z,92.01
2022-11-03T06:42:11.677Z,92.01
2022-11-03T06:43:11.645Z,92.01
2022-11-03T06:44:11.636Z,92.01
2022-11-03T06:45:11.617Z,92.01
2022-11-03T06:46:11.616Z,92.01
2022-11-03T06:47:11.607Z,91.91
2022-11-03T06:48:11.610Z,91.91
2022-11-03T06:49:11.577Z,91.91
2022-11-03T06:50:11.566Z,91.91
2022-11-03T06:51:11.557Z,91.80
2022-11-03T06:52:11.541Z,91.80
2022-11-03T06:53:11.547Z,91.91
2022-11-03T06:54:11.525Z,91.80
2022-11-03T06:55:13.981Z,91.70
2022-11-03T06:56:12.501Z,91.70
2022-11-03T06:57:11.479Z,91.60
2022-11-03T06:58:11.500Z,91.60
2022-11-03T06:59:11.468Z,91.60
2022-11-03T07:00:32.873Z,91.46
2022-11-03T07:01:12.590Z,91.35
2022-11-03T07:02:11.492Z,91.35
2022-11-03T07:03:11.444Z,91.35
2022-11-03T07:04:11.421Z,91.35
2022-11-03T07:05:11.400Z,91.35
2022-11-03T07:06:11.386Z,91.25
2022-11-03T07:07:11.369Z,91.25
2022-11-03T07:08:11.399Z,91.15
2022-11-03T07:09:11.349Z,90.94
2022-11-03T07:10:11.340Z,90.84
2022-11-03T07:11:11.328Z,90.74
2022-11-03T07:12:11.317Z,90.70
2022-11-03T07:13:11.667Z,90.59
2022-11-03T07:14:11.319Z,90.59
2022-11-03T07:15:11.290Z,90.49
2022-11-03T07:16:13.496Z,90.49
2022-11-03T07:17:12.263Z,90.39
2022-11-03T07:18:11.279Z,90.29
2022-11-03T07:19:11.232Z,90.19
2022-11-03T07:20:11.229Z,90.19
2022-11-03T07:21:11.213Z,90.19
2022-11-03T07:22:11.201Z,90.19
2022-11-03T07:23:11.202Z,89.98
2022-11-03T07:24:11.210Z,89.94
2022-11-03T07:25:11.170Z,89.84
2022-11-03T07:26:11.169Z,89.84
2022-11-03T07:27:11.150Z,89.73
2022-11-03T07:28:11.150Z,89.63
2022-11-03T07:29:11.144Z,89.63
2022-11-03T07:30:11.121Z,89.63
2022-11-03T07:31:15.995Z,89.73
2022-11-03T07:32:12.094Z,89.53
2022-11-03T07:33:11.083Z,89.53
2022-11-03T07:34:11.091Z,89.39
2022-11-03T07:35:11.054Z,89.28
2022-11-03T07:36:15.965Z,89.28
2022-11-03T07:38:11.032Z,89.18
2022-11-03T07:39:11.040Z,89.08
2022-11-03T07:40:11.013Z,88.98
2022-11-03T07:41:10.993Z,88.98
2022-11-03T07:42:10.982Z,88.88
2022-11-03T07:43:10.972Z,88.88
2022-11-03T07:44:10.983Z,88.73
2022-11-03T07:45:10.944Z,88.63
2022-11-03T07:46:10.943Z,88.53
2022-11-03T07:47:10.924Z,88.53
2022-11-03T07:48:11.128Z,88.43
2022-11-03T07:49:10.924Z,88.43
2022-11-03T07:50:10.896Z,88.32
2022-11-03T07:51:10.873Z,88.12
2022-11-03T07:52:10.877Z,88.12
2022-11-03T07:53:10.853Z,88.08
2022-11-03T07:54:10.873Z,87.98
2022-11-03T07:55:10.835Z,87.98
2022-11-03T07:56:10.891Z,87.88
2022-11-03T07:57:10.816Z,87.88
2022-11-03T07:58:10.807Z,87.67
2022-11-03T07:59:10.899Z,87.67
2022-11-03T08:00:11.004Z,87.37
2022-11-03T08:01:10.862Z,87.26
2022-11-03T08:02:10.881Z,87.12
2022-11-03T08:03:10.745Z,87.02
2022-11-03T08:04:10.748Z,86.92
2022-11-03T08:05:10.795Z,86.82
2022-11-03T08:06:11.773Z,86.61
2022-11-03T08:07:10.727Z,86.61
2022-11-03T08:08:10.699Z,86.47
2022-11-03T08:09:10.688Z,86.27
2022-11-03T08:10:10.703Z,86.16
2022-11-03T08:11:10.725Z,86.06
2022-11-03T08:12:10.660Z,85.86
2022-11-03T08:13:10.646Z,85.96
2022-11-03T08:14:10.636Z,85.86
2022-11-03T08:15:10.626Z,85.66
2022-11-03T08:16:10.628Z,85.66
2022-11-03T08:17:10.596Z,85.66
2022-11-03T08:18:10.597Z,85.72
2022-11-03T08:19:10.576Z,85.72
2022-11-03T08:20:10.588Z,85.41
2022-11-03T08:21:10.566Z,85.41
2022-11-03T08:22:10.547Z,85.31
2022-11-03T08:23:25.330Z,85.31
2022-11-03T08:24:11.519Z,85.21
2022-11-03T08:25:10.537Z,85.21
2022-11-03T08:26:10.513Z,85.31
2022-11-03T08:27:10.497Z,85.21
2022-11-03T08:28:10.485Z,85.21
2022-11-03T08:29:10.467Z,85.21
2022-11-03T08:30:10.480Z,85.00
2022-11-03T08:31:12.827Z,85.11
2022-11-03T08:32:10.439Z,85.11
2022-11-03T08:33:10.431Z,84.97
2022-11-03T08:34:10.414Z,84.86
2022-11-03T08:35:10.409Z,84.66
2022-11-03T08:36:10.413Z,84.45
2022-11-03T08:37:10.380Z,84.35
2022-11-03T08:38:10.504Z,84.25
2022-11-03T08:39:10.361Z,84.01
2022-11-03T08:40:10.370Z,83.91
2022-11-03T08:41:10.359Z,83.91
2022-11-03T08:42:10.331Z,83.60
2022-11-03T08:43:10.320Z,83.50
2022-11-03T08:44:10.303Z,83.36
2022-11-03T08:45:10.292Z,83.26
2022-11-03T08:46:17.174Z,83.06
2022-11-03T08:47:11.299Z,82.95
2022-11-03T08:48:10.292Z,83.15
2022-11-03T08:49:10.246Z,82.85
2022-11-03T08:50:10.243Z,82.65
2022-11-03T08:51:10.261Z,82.54
2022-11-03T08:52:10.241Z,82.45
2022-11-03T08:53:10.201Z,82.65
2022-11-03T08:54:10.200Z,82.65
2022-11-03T08:55:10.196Z,82.75
2022-11-03T08:56:12.575Z,82.54
2022-11-03T08:57:10.193Z,82.34
2022-11-03T08:58:10.361Z,82.51
2022-11-03T08:59:10.150Z,82.51
2022-11-03T09:00:10.133Z,82.51
2022-11-03T09:01:10.125Z,82.51
2022-11-03T09:02:10.132Z,82.20
2022-11-03T09:03:10.178Z,82.31
2022-11-03T09:04:10.136Z,82.00
2022-11-03T09:05:10.076Z,82.20
2022-11-03T09:06:10.066Z,82.10
2022-11-03T09:07:10.079Z,82.00
2022-11-03T09:11:11.044Z,81.70
2022-11-03T09:12:10.009Z,81.56
2022-11-03T09:13:10.116Z,81.66
2022-11-03T09:14:09.985Z,81.35
2022-11-03T09:15:09.964Z,81.25
2022-11-03T09:16:09.977Z,81.35
2022-11-03T09:17:09.947Z,81.15
2022-11-03T09:18:10.080Z,81.25
2022-11-03T09:19:09.922Z,81.25
2022-11-03T09:20:09.912Z,81.35
2022-11-03T09:21:09.895Z,81.25
2022-11-03T09:22:09.917Z,81.25
2022-11-03T09:23:09.877Z,81.35
2022-11-03T09:24:09.876Z,81.11
2022-11-03T09:25:09.859Z,81.21
2022-11-03T09:26:09.856Z,81.11
2022-11-03T09:27:09.878Z,80.80
2022-11-03T09:28:10.202Z,80.80
2022-11-03T09:29:09.817Z,80.80
2022-11-03T09:30:14.087Z,80.71
2022-11-03T09:31:09.796Z,80.50
2022-11-03T09:32:09.808Z,80.50
2022-11-03T09:33:09.778Z,80.19
2022-11-03T09:34:09.760Z,80.40
2022-11-03T09:35:09.754Z,80.10
2022-11-03T09:36:09.739Z,80.30
2022-11-03T09:37:09.768Z,80.10
2022-11-03T09:38:09.944Z,80.06
2022-11-03T09:39:09.707Z,80.26
2022-11-03T09:40:09.698Z,80.06
2022-11-03T09:41:19.411Z,80.19
2022-11-03T09:42:10.703Z,80.06
2022-11-03T09:43:10.177Z,80.10
2022-11-03T09:44:09.676Z,80.10
2022-11-03T09:45:09.653Z,80.19
2022-11-03T09:46:09.638Z,80.40
2022-11-03T09:47:09.618Z,80.50
2022-11-03T09:48:09.939Z,80.40
2022-11-03T09:49:09.620Z,80.26
2022-11-03T09:50:09.587Z,80.16
2022-11-03T09:51:09.571Z,80.06
2022-11-03T09:52:09.560Z,79.75
2022-11-03T09:53:09.767Z,79.65
2022-11-03T09:54:09.541Z,79.85
2022-11-03T09:55:09.538Z,79.65
2022-11-03T09:56:09.520Z,79.55
2022-11-03T09:57:09.517Z,79.51
2022-11-03T09:58:09.648Z,79.31
2022-11-03T09:59:09.494Z,79.21
2022-11-03T10:00:09.472Z,79.00
2022-11-03T10:01:09.623Z,78.80
2022-11-03T10:02:09.547Z,78.70
2022-11-03T10:03:09.778Z,78.77
2022-11-03T10:04:09.455Z,78.87
2022-11-03T10:05:11.137Z,78.87
2022-11-03T10:06:12.471Z,78.56
2022-11-03T10:07:10.403Z,78.26
2022-11-03T10:08:09.384Z,78.46
2022-11-03T10:09:09.401Z,78.26
2022-11-03T10:10:09.364Z,78.12
2022-11-03T10:11:09.353Z,77.82
2022-11-03T10:12:09.344Z,77.31
2022-11-03T10:13:09.803Z,77.28
2022-11-03T10:14:09.346Z,76.97
2022-11-03T10:15:09.317Z,76.97
2022-11-03T10:16:09.310Z,77.07
2022-11-03T10:17:09.287Z,76.87
2022-11-03T10:18:09.284Z,76.87
2022-11-03T10:19:09.276Z,76.46
2022-11-03T10:20:09.274Z,76.56
2022-11-03T10:21:09.245Z,76.56
2022-11-03T10:22:09.227Z,76.53
2022-11-03T10:23:09.494Z,76.03
2022-11-03T10:24:09.217Z,76.03
2022-11-03T10:25:09.229Z,76.03
2022-11-03T10:26:09.188Z,75.82
2022-11-03T10:27:09.188Z,75.79
2022-11-03T10:28:14.011Z,75.82
2022-11-03T10:29:10.233Z,75.92
2022-11-03T10:30:09.168Z,75.82
2022-11-03T10:31:13.472Z,75.72
2022-11-03T10:32:09.127Z,75.31
2022-11-03T10:33:09.407Z,75.42
2022-11-03T10:34:09.105Z,74.91
2022-11-03T10:35:09.119Z,75.11
2022-11-03T10:36:09.080Z,75.31
2022-11-03T10:37:09.079Z,75.01
2022-11-03T10:38:09.057Z,75.21
2022-11-03T10:39:09.052Z,74.98
2022-11-03T10:40:13.269Z,74.07
2022-11-03T10:41:10.028Z,74.37
2022-11-03T10:42:09.009Z,73.93
2022-11-03T10:43:09.193Z,73.43
2022-11-03T10:44:08.988Z,72.99
2022-11-03T10:45:09.009Z,72.58
2022-11-03T10:46:23.447Z,71.73
2022-11-03T10:47:09.961Z,70.96
2022-11-03T10:48:08.951Z,70.02
2022-11-03T10:49:08.952Z,69.08
2022-11-03T10:50:08.971Z,68.34
2022-11-03T10:51:08.921Z,68.21
2022-11-03T10:52:08.922Z,67.57
2022-11-03T10:53:09.306Z,66.74
2022-11-03T10:54:08.884Z,65.93
2022-11-03T10:55:08.872Z,66.03
2022-11-03T10:56:08.863Z,65.80
2022-11-03T10:57:08.873Z,65.39
2022-11-03T10:58:09.020Z,65.73
2022-11-03T10:59:08.835Z,65.93
2022-11-03T11:00:08.824Z,66.13
2022-11-03T11:01:08.891Z,66.47
2022-11-03T11:02:08.975Z,66.77
2022-11-03T11:03:09.197Z,67.23
2022-11-03T11:04:08.822Z,67.87
2022-11-03T11:05:08.767Z,68.48
2022-11-03T11:06:08.745Z,69.01
2022-11-03T11:07:08.743Z,69.35
2022-11-03T11:08:08.772Z,69.95
2022-11-03T11:09:08.714Z,69.78
2022-11-03T11:10:08.719Z,70.12
2022-11-03T11:11:08.695Z,70.32
2022-11-03T11:12:08.685Z,70.56
2022-11-03T11:13:08.943Z,71.17
2022-11-03T11:14:08.666Z,71.09
2022-11-03T11:15:08.659Z,71.50
2022-11-03T11:16:08.645Z,71.80
2022-11-03T11:17:08.638Z,72.44
2022-11-03T11:18:08.680Z,72.65
2022-11-03T11:19:08.632Z,72.85
2022-11-03T11:20:08.597Z,72.85
2022-11-03T11:21:08.596Z,72.85
2022-11-03T11:22:08.577Z,73.05
2022-11-03T11:23:09.066Z,73.15
2022-11-03T11:24:08.556Z,73.46
2022-11-03T11:25:08.548Z,73.09
2022-11-03T11:26:08.532Z,73.19
2022-11-03T11:27:08.526Z,73.29
2022-11-03T11:28:08.528Z,73.49
2022-11-03T11:29:08.511Z,73.69
2022-11-03T11:30:08.489Z,73.59
2022-11-03T11:31:08.477Z,73.39
2022-11-03T11:32:08.461Z,73.69
2022-11-03T11:33:08.807Z,73.80
2022-11-03T11:34:08.448Z,73.80
2022-11-03T11:35:08.432Z,73.59
2022-11-03T11:36:08.423Z,73.80
2022-11-03T11:37:08.409Z,73.49
2022-11-03T11:38:08.411Z,73.59
2022-11-03T11:39:08.411Z,73.69
2022-11-03T11:40:08.380Z,73.80
2022-11-03T11:41:08.370Z,73.59
2022-11-03T11:42:08.426Z,73.69
2022-11-03T11:43:08.549Z,73.80
2022-11-03T11:44:08.359Z,73.90
2022-11-03T11:45:08.321Z,73.59
2022-11-03T11:46:08.314Z,73.90
2022-11-03T11:47:08.301Z,73.90
2022-11-03T11:48:08.303Z,73.90
2022-11-03T11:49:08.390Z,74.00
2022-11-03T11:50:08.301Z,73.90
2022-11-03T11:51:08.546Z,74.10
2022-11-03T11:52:08.537Z,74.30
2022-11-03T11:53:09.286Z,74.20
2022-11-03T11:54:17.556Z,74.44
2022-11-03T11:55:09.862Z,74.54
2022-11-03T11:56:08.838Z,74.64
2022-11-03T11:57:08.431Z,74.54
2022-11-03T11:58:08.248Z,74.64
2022-11-03T11:59:08.235Z,74.74
2022-11-03T12:00:08.176Z,74.84
2022-11-03T12:01:08.178Z,74.74
2022-11-03T12:02:08.136Z,74.84
2022-11-03T12:03:08.395Z,74.95
2022-11-03T12:04:08.229Z,74.84
2022-11-03T12:05:08.107Z,74.95
2022-11-03T12:06:08.188Z,74.95
2022-11-03T12:07:08.086Z,74.95
2022-11-03T12:08:08.442Z,75.04
2022-11-03T12:09:08.059Z,74.98
2022-11-03T12:10:08.048Z,75.18
2022-11-03T12:11:08.109Z,75.08
2022-11-03T12:12:08.924Z,75.18
2022-11-03T12:13:08.020Z,75.28
2022-11-03T12:14:08.047Z,75.15
2022-11-03T12:15:08.075Z,74.98
2022-11-03T12:16:08.140Z,74.84
2022-11-03T12:17:07.987Z,74.95
2022-11-03T12:18:08.481Z,74.74
2022-11-03T12:19:08.053Z,74.44
2022-11-03T12:20:07.956Z,74.10
2022-11-03T12:21:08.006Z,73.80
2022-11-03T12:22:07.947Z,73.59
2022-11-03T12:23:07.919Z,73.05
2022-11-03T12:24:07.889Z,72.41
2022-11-03T12:25:07.900Z,71.57
2022-11-03T12:26:07.917Z,71.03
2022-11-03T12:27:07.898Z,70.39
2022-11-03T12:28:08.107Z,69.75
2022-11-03T12:29:07.849Z,68.61
2022-11-03T12:30:07.830Z,68.07
2022-11-03T12:31:07.829Z,67.54
2022-11-03T12:32:19.946Z,67.00
2022-11-03T12:33:09.193Z,66.06
2022-11-03T12:34:07.791Z,65.30
2022-11-03T12:35:07.805Z,64.16
2022-11-03T12:36:07.834Z,63.56
2022-11-03T12:37:07.782Z,63.65
2022-11-03T12:38:07.771Z,63.42
2022-11-03T12:39:07.784Z,61.93
2022-11-03T12:40:07.715Z,60.66
2022-11-03T12:41:07.752Z,58.87
2022-11-03T12:42:07.694Z,57.09
2022-11-03T12:43:08.050Z,56.04
2022-11-03T12:44:07.753Z,54.89
2022-11-03T12:45:07.674Z,54.27
2022-11-03T12:46:07.697Z,53.47
2022-11-03T12:47:07.674Z,54.44
2022-11-03T12:48:07.648Z,56.57
2022-11-03T12:49:07.654Z,59.09
2022-11-03T12:50:07.634Z,61.51
2022-11-03T12:51:07.628Z,63.05
2022-11-03T12:52:08.281Z,64.35
2022-11-03T12:53:07.939Z,65.62
2022-11-03T12:54:07.564Z,66.66
2022-11-03T12:55:07.555Z,67.36
2022-11-03T12:56:07.606Z,67.60